Time,TemperatureF,DewpointF,PressureIn,WindDirection,WindDirectionDegrees,WindSpeedMPH,WindSpeedGustMPH,Humidity,HourlyPrecipIn,Conditions,Clouds,dailyrainin,SolarRadiationWatts/m^2,SoftwareType,DateUTC
2014-01-09 00:22:00,35.0,25.0,-100.00,SSW,197,5.0,16.0,67,0.00,,,0.00,0.000000,,2014-01-09 07:22:00,
2014-01-09 00:32:00,35.0,25.0,-100.00,SSW,197,5.0,16.0,67,0.00,,,0.00,0.000000,,2014-01-09 07:32:00,
2014-01-09 00:42:00,35.0,25.0,-100.00,SSW,197,5.0,16.0,67,0.00,,,0.00,0.000000,,2014-01-09 07:42:00,
2014-01-09 00:52:00,35.0,25.0,-100.00,SSW,197,5.0,16.0,67,0.00,,,0.00,0.000000,,2014-01-09 07:52:00,
2014-01-09 01:22:00,33.0,26.0,-100.00,SW,234,4.0,13.0,75,0.00,,,0.00,0.000000,,2014-01-09 08:22:00,
2014-01-09 01:32:00,33.0,26.0,-100.00,SW,234,4.0,13.0,75,0.00,,,0.00,0.000000,,2014-01-09 08:32:00,
2014-01-09 01:42:00,33.0,26.0,-100.00,SW,234,4.0,13.0,75,0.00,,,0.00,0.000000,,2014-01-09 08:42:00,
2014-01-09 01:52:00,33.0,26.0,-100.00,SW,234,4.0,13.0,75,0.00,,,0.00,0.000000,,2014-01-09 08:52:00,
2014-01-09 02:22:00,34.0,29.0,-100.00,North,350,2.0,13.0,81,0.00,,,0.00,0.000000,,2014-01-09 09:22:00,
2014-01-09 02:33:00,34.0,29.0,-100.00,North,350,2.0,13.0,81,0.00,,,0.00,0.000000,,2014-01-09 09:33:00,
2014-01-09 02:43:00,34.0,29.0,-100.00,North,350,2.0,13.0,81,0.00,,,0.00,0.000000,,2014-01-09 09:43:00,
2014-01-09 02:53:00,34.0,29.0,-100.00,North,350,2.0,13.0,81,0.00,,,0.00,0.000000,,2014-01-09 09:53:00,
2014-01-09 03:22:00,32.0,30.0,-100.00,SW,234,3.0,10.0,94,0.00,,,0.00,0.000000,,2014-01-09 10:22:00,
2014-01-09 03:32:00,32.0,30.0,-100.00,SW,234,3.0,10.0,94,0.00,,,0.00,0.000000,,2014-01-09 10:32:00,
2014-01-09 03:43:00,32.0,30.0,-100.00,SW,234,3.0,10.0,94,0.00,,,0.00,0.000000,,2014-01-09 10:43:00,
2014-01-09 03:52:00,32.0,30.0,-100.00,SW,234,3.0,10.0,94,0.00,,,0.00,0.000000,,2014-01-09 10:52:00,
2014-01-09 04:22:00,32.0,24.0,-100.00,East,89,6.0,12.0,71,0.00,,,0.00,0.000000,,2014-01-09 11:22:00,
2014-01-09 04:33:00,32.0,24.0,-100.00,East,89,6.0,12.0,71,0.00,,,0.00,0.000000,,2014-01-09 11:33:00,
2014-01-09 04:42:00,32.0,24.0,-100.00,East,89,6.0,12.0,71,0.00,,,0.00,0.000000,,2014-01-09 11:42:00,
2014-01-09 04:52:00,32.0,24.0,-100.00,East,89,6.0,12.0,71,0.00,,,0.00,0.000000,,2014-01-09 11:52:00,
2014-01-09 05:22:00,33.0,25.0,-100.00,WSW,251,4.0,14.0,72,0.00,,,0.00,0.000000,,2014-01-09 12:22:00,
2014-01-09 05:32:00,33.0,25.0,-100.00,WSW,251,4.0,14.0,72,0.00,,,0.00,0.000000,,2014-01-09 12:32:00,
2014-01-09 05:42:00,33.0,25.0,-100.00,WSW,251,4.0,14.0,72,0.00,,,0.00,0.000000,,2014-01-09 12:42:00,
2014-01-09 05:52:00,33.0,25.0,-100.00,WSW,251,4.0,14.0,72,0.00,,,0.00,0.000000,,2014-01-09 12:52:00,
2014-01-09 06:22:00,33.0,26.0,-100.00,North,358,1.0,11.0,74,0.00,,,0.00,0.000000,,2014-01-09 13:22:00,
2014-01-09 06:32:00,33.0,26.0,-100.00,North,358,1.0,11.0,74,0.00,,,0.00,0.000000,,2014-01-09 13:32:00,
2014-01-09 06:42:00,33.0,26.0,-100.00,North,358,1.0,11.0,74,0.00,,,0.00,0.000000,,2014-01-09 13:42:00,
2014-01-09 06:52:00,33.0,26.0,-100.00,North,358,1.0,11.0,74,0.00,,,0.00,0.000000,,2014-01-09 13:52:00,
2014-01-09 07:22:00,32.0,27.0,-100.00,North,3,2.0,9.0,83,0.00,,,0.00,0.000000,,2014-01-09 14:22:00,
2014-01-09 07:32:00,32.0,27.0,-100.00,North,3,2.0,9.0,83,0.00,,,0.00,0.000000,,2014-01-09 14:32:00,
2014-01-09 07:42:00,32.0,27.0,-100.00,North,3,2.0,9.0,83,0.00,,,0.00,0.000000,,2014-01-09 14:42:00,
2014-01-09 07:52:00,32.0,27.0,-100.00,North,3,2.0,9.0,83,0.00,,,0.00,0.000000,,2014-01-09 14:52:00,
2014-01-09 08:22:00,32.0,27.0,-100.00,NNW,331,5.0,14.0,80,0.00,,,0.00,0.000000,,2014-01-09 15:22:00,
2014-01-09 08:33:00,32.0,27.0,-100.00,NNW,331,5.0,14.0,80,0.00,,,0.00,0.000000,,2014-01-09 15:33:00,
2014-01-09 08:43:00,32.0,27.0,-100.00,NNW,331,5.0,14.0,80,0.00,,,0.00,0.000000,,2014-01-09 15:43:00,
2014-01-09 08:53:00,32.0,27.0,-100.00,NNW,331,5.0,14.0,80,0.00,,,0.00,0.000000,,2014-01-09 15:53:00,
2014-01-09 09:22:00,31.0,25.0,-100.00,SSW,208,5.0,16.0,77,0.00,,,0.00,6.000000,,2014-01-09 16:22:00,
2014-01-09 11:22:00,32.0,24.0,-100.00,NW,326,4.0,17.0,73,0.00,,,0.00,138.000000,,2014-01-09 18:22:00,
2014-01-09 11:37:00,32.0,24.0,-100.00,NW,326,4.0,17.0,73,0.00,,,0.00,138.000000,,2014-01-09 18:37:00,
2014-01-09 17:32:00,26.0,17.0,-100.00,North,-999,0.0,17.0,67,0.00,,,0.00,32.000000,,2014-01-10 00:32:00,
2014-01-09 17:42:00,26.0,17.0,-100.00,North,-999,0.0,17.0,67,0.00,,,0.00,32.000000,,2014-01-10 00:42:00,
2014-01-09 17:52:00,26.0,17.0,-100.00,North,-999,0.0,17.0,67,0.00,,,0.00,32.000000,,2014-01-10 00:52:00,
2014-01-09 18:21:00,27.0,19.0,-100.00,WSW,242,4.0,11.0,70,0.00,,,0.00,1.000000,,2014-01-10 01:21:00,
2014-01-09 18:32:00,27.0,19.0,-100.00,WSW,242,4.0,11.0,70,0.00,,,0.00,1.000000,,2014-01-10 01:32:00,
2014-01-09 18:42:00,27.0,19.0,-100.00,WSW,242,4.0,11.0,70,0.00,,,0.00,1.000000,,2014-01-10 01:42:00,
2014-01-09 18:52:00,27.0,19.0,-100.00,WSW,242,4.0,11.0,70,0.00,,,0.00,1.000000,,2014-01-10 01:52:00,
2014-01-09 19:21:00,25.0,19.0,-100.00,NNW,345,5.0,16.0,79,0.00,,,0.00,0.000000,,2014-01-10 02:21:00,
2014-01-09 19:32:00,25.0,19.0,-100.00,NNW,345,5.0,16.0,79,0.00,,,0.00,0.000000,,2014-01-10 02:32:00,
2014-01-09 19:42:00,25.0,19.0,-100.00,NNW,345,5.0,16.0,79,0.00,,,0.00,0.000000,,2014-01-10 02:42:00,
2014-01-09 19:52:00,25.0,19.0,-100.00,NNW,345,5.0,16.0,79,0.00,,,0.00,0.000000,,2014-01-10 02:52:00,
2014-01-09 20:22:00,26.0,15.0,-100.00,NW,319,2.0,16.0,62,0.00,,,0.00,0.000000,,2014-01-10 03:22:00,
2014-01-09 20:33:00,26.0,15.0,-100.00,NW,319,2.0,16.0,62,0.00,,,0.00,0.000000,,2014-01-10 03:33:00,
2014-01-09 20:43:00,26.0,15.0,-100.00,NW,319,2.0,16.0,62,0.00,,,0.00,0.000000,,2014-01-10 03:43:00,
2014-01-09 20:54:00,26.0,15.0,-100.00,NW,319,2.0,16.0,62,0.00,,,0.00,0.000000,,2014-01-10 03:54:00,
2014-01-09 21:23:00,26.0,14.0,-100.00,West,278,5.0,14.0,60,0.00,,,-99.99,0.000000,,2014-01-10 04:23:00,
2014-01-09 21:33:00,26.0,14.0,-100.00,West,278,5.0,14.0,60,0.00,,,-99.99,0.000000,,2014-01-10 04:33:00,
2014-01-09 21:42:00,26.0,14.0,-100.00,West,278,5.0,14.0,60,0.00,,,-99.99,0.000000,,2014-01-10 04:42:00,
2014-01-09 21:52:00,26.0,14.0,-100.00,West,278,5.0,14.0,60,0.00,,,-99.99,0.000000,,2014-01-10 04:52:00,
2014-01-09 22:22:00,25.0,15.0,-100.00,East,84,3.0,15.0,65,0.00,,,0.00,0.000000,,2014-01-10 05:22:00,
2014-01-09 22:33:00,25.0,15.0,-100.00,East,84,3.0,15.0,65,0.00,,,0.00,0.000000,,2014-01-10 05:33:00,
2014-01-09 22:43:00,25.0,15.0,-100.00,East,84,3.0,15.0,65,0.00,,,0.00,0.000000,,2014-01-10 05:43:00,
2014-01-09 22:53:00,25.0,15.0,-100.00,East,84,3.0,15.0,65,0.00,,,0.00,0.000000,,2014-01-10 05:53:00,
2014-01-09 23:22:00,27.0,17.0,-100.00,WNW,300,4.0,15.0,65,0.00,,,0.00,0.000000,,2014-01-10 06:22:00,
2014-01-09 23:33:00,27.0,17.0,-100.00,WNW,300,4.0,15.0,65,0.00,,,0.00,0.000000,,2014-01-10 06:33:00,
2014-01-09 23:43:00,27.0,17.0,-100.00,WNW,300,4.0,15.0,65,0.00,,,0.00,0.000000,,2014-01-10 06:43:00,
2014-01-09 23:52:00,27.0,17.0,-100.00,WNW,300,4.0,15.0,65,0.00,,,0.00,0.000000,,2014-01-10 06:52:00,